sensor_id;sensor_type;location;lat;lon;timestamp;P1;durP1;ratioP1;P2;durP2;ratioP2
13208;SDS011;6669;42.678;23.332;2023-07-13T00:01:08;4.07;;;3.60;;
13208;SDS011;6669;42.678;23.332;2023-07-13T00:03:36;5.75;;;3.70;;
13208;SDS011;6669;42.678;23.332;2023-07-13T00:06:04;4.50;;;3.75;;
13208;SDS011;6669;42.678;23.332;2023-07-13T00:08:32;3.13;;;2.83;;
13208;SDS011;6669;42.678;23.332;2023-07-13T00:11:00;3.10;;;2.80;;
13208;SDS011;6669;42.678;23.332;2023-07-13T00:13:29;5.38;;;2.95;;
13208;SDS011;6669;42.678;23.332;2023-07-13T00:15:56;3.83;;;2.97;;
13208;SDS011;6669;42.678;23.332;2023-07-13T00:18:27;6.97;;;3.40;;
13208;SDS011;6669;42.678;23.332;2023-07-13T00:20:56;3.40;;;2.85;;
13208;SDS011;6669;42.678;23.332;2023-07-13T00:23:31;3.38;;;2.88;;
13208;SDS011;6669;42.678;23.332;2023-07-13T00:26:00;4.30;;;3.13;;
13208;SDS011;6669;42.678;23.332;2023-07-13T00:28:28;4.88;;;4.30;;
13208;SDS011;6669;42.678;23.332;2023-07-13T00:30:56;7.78;;;6.45;;
13208;SDS011;6669;42.678;23.332;2023-07-13T00:33:24;12.98;;;9.68;;
13208;SDS011;6669;42.678;23.332;2023-07-13T00:35:54;4.40;;;3.30;;
13208;SDS011;6669;42.678;23.332;2023-07-13T00:38:24;5.95;;;3.38;;
13208;SDS011;6669;42.678;23.332;2023-07-13T00:40:52;4.20;;;3.50;;
13208;SDS011;6669;42.678;23.332;2023-07-13T00:43:21;5.13;;;3.50;;
13208;SDS011;6669;42.678;23.332;2023-07-13T00:46:09;5.75;;;3.55;;
13208;SDS011;6669;42.678;23.332;2023-07-13T00:48:43;5.60;;;4.03;;
13208;SDS011;6669;42.678;23.332;2023-07-13T00:51:14;3.95;;;3.55;;
13208;SDS011;6669;42.678;23.332;2023-07-13T00:53:45;4.97;;;3.60;;
13208;SDS011;6669;42.678;23.332;2023-07-13T00:56:13;3.38;;;2.95;;
13208;SDS011;6669;42.678;23.332;2023-07-13T00:58:42;4.25;;;3.80;;
13208;SDS011;6669;42.678;23.332;2023-07-13T01:01:10;4.38;;;3.65;;
13208;SDS011;6669;42.678;23.332;2023-07-13T01:03:39;4.68;;;3.72;;
13208;SDS011;6669;42.678;23.332;2023-07-13T01:06:07;4.22;;;3.60;;
13208;SDS011;6669;42.678;23.332;2023-07-13T01:08:37;4.05;;;3.08;;
13208;SDS011;6669;42.678;23.332;2023-07-13T01:11:06;3.83;;;3.42;;
13208;SDS011;6669;42.678;23.332;2023-07-13T01:13:35;5.05;;;3.50;;
13208;SDS011;6669;42.678;23.332;2023-07-13T01:16:04;4.65;;;4.20;;
13208;SDS011;6669;42.678;23.332;2023-07-13T01:18:40;4.82;;;3.42;;
13208;SDS011;6669;42.678;23.332;2023-07-13T01:21:09;3.90;;;3.55;;
13208;SDS011;6669;42.678;23.332;2023-07-13T01:23:37;3.88;;;3.45;;
13208;SDS011;6669;42.678;23.332;2023-07-13T01:26:05;4.63;;;4.03;;
13208;SDS011;6669;42.678;23.332;2023-07-13T01:28:33;4.68;;;3.30;;
13208;SDS011;6669;42.678;23.332;2023-07-13T01:31:03;5.07;;;3.88;;
13208;SDS011;6669;42.678;23.332;2023-07-13T01:33:31;4.65;;;3.63;;
13208;SDS011;6669;42.678;23.332;2023-07-13T01:36:00;3.67;;;3.38;;
13208;SDS011;6669;42.678;23.332;2023-07-13T01:38:30;6.32;;;3.40;;
13208;SDS011;6669;42.678;23.332;2023-07-13T01:40:58;5.03;;;3.90;;
13208;SDS011;6669;42.678;23.332;2023-07-13T01:43:26;4.60;;;3.70;;
13208;SDS011;6669;42.678;23.332;2023-07-13T01:45:54;6.18;;;4.10;;
13208;SDS011;6669;42.678;23.332;2023-07-13T01:48:42;5.22;;;4.03;;
13208;SDS011;6669;42.678;23.332;2023-07-13T01:51:10;4.15;;;3.63;;
13208;SDS011;6669;42.678;23.332;2023-07-13T01:53:40;4.47;;;3.67;;
13208;SDS011;6669;42.678;23.332;2023-07-13T01:56:08;5.25;;;4.00;;
13208;SDS011;6669;42.678;23.332;2023-07-13T01:58:36;6.43;;;4.30;;
13208;SDS011;6669;42.678;23.332;2023-07-13T02:01:04;4.30;;;3.88;;
13208;SDS011;6669;42.678;23.332;2023-07-13T02:03:33;5.03;;;4.18;;
13208;SDS011;6669;42.678;23.332;2023-07-13T02:06:01;4.43;;;3.60;;
13208;SDS011;6669;42.678;23.332;2023-07-13T02:08:29;5.72;;;5.13;;
13208;SDS011;6669;42.678;23.332;2023-07-13T02:10:59;4.32;;;3.90;;
13208;SDS011;6669;42.678;23.332;2023-07-13T02:13:27;5.05;;;3.83;;
13208;SDS011;6669;42.678;23.332;2023-07-13T02:15:55;6.35;;;3.80;;
13208;SDS011;6669;42.678;23.332;2023-07-13T02:18:23;4.80;;;4.15;;
13208;SDS011;6669;42.678;23.332;2023-07-13T02:20:51;4.65;;;3.63;;
13208;SDS011;6669;42.678;23.332;2023-07-13T02:23:19;6.13;;;4.15;;
13208;SDS011;6669;42.678;23.332;2023-07-13T02:25:47;4.65;;;3.85;;
13208;SDS011;6669;42.678;23.332;2023-07-13T02:28:17;4.18;;;3.78;;
13208;SDS011;6669;42.678;23.332;2023-07-13T02:30:45;5.63;;;3.90;;
13208;SDS011;6669;42.678;23.332;2023-07-13T02:33:13;4.63;;;3.63;;
13208;SDS011;6669;42.678;23.332;2023-07-13T02:35:41;5.75;;;3.80;;
13208;SDS011;6669;42.678;23.332;2023-07-13T02:38:09;5.70;;;4.07;;
13208;SDS011;6669;42.678;23.332;2023-07-13T02:40:37;6.10;;;4.13;;
13208;SDS011;6669;42.678;23.332;2023-07-13T02:43:05;4.70;;;3.50;;
13208;SDS011;6669;42.678;23.332;2023-07-13T02:45:34;7.07;;;3.92;;
13208;SDS011;6669;42.678;23.332;2023-07-13T02:48:02;5.43;;;3.65;;
13208;SDS011;6669;42.678;23.332;2023-07-13T02:50:31;7.18;;;3.83;;
13208;SDS011;6669;42.678;23.332;2023-07-13T02:52:59;4.07;;;3.60;;
13208;SDS011;6669;42.678;23.332;2023-07-13T02:55:26;7.43;;;3.67;;
13208;SDS011;6669;42.678;23.332;2023-07-13T02:57:54;5.40;;;4.32;;
13208;SDS011;6669;42.678;23.332;2023-07-13T03:00:23;5.47;;;3.63;;
13208;SDS011;6669;42.678;23.332;2023-07-13T03:02:53;6.20;;;4.30;;
13208;SDS011;6669;42.678;23.332;2023-07-13T03:05:24;4.10;;;3.70;;
13208;SDS011;6669;42.678;23.332;2023-07-13T03:07:52;10.25;;;4.50;;
13208;SDS011;6669;42.678;23.332;2023-07-13T03:10:20;4.20;;;3.80;;
13208;SDS011;6669;42.678;23.332;2023-07-13T03:12:48;6.30;;;3.85;;
13208;SDS011;6669;42.678;23.332;2023-07-13T03:15:16;4.63;;;3.95;;
13208;SDS011;6669;42.678;23.332;2023-07-13T03:17:44;5.10;;;4.20;;
13208;SDS011;6669;42.678;23.332;2023-07-13T03:20:13;6.10;;;4.20;;
13208;SDS011;6669;42.678;23.332;2023-07-13T03:22:42;5.20;;;4.07;;
13208;SDS011;6669;42.678;23.332;2023-07-13T03:25:10;4.75;;;4.05;;
13208;SDS011;6669;42.678;23.332;2023-07-13T03:27:38;5.75;;;4.43;;
13208;SDS011;6669;42.678;23.332;2023-07-13T03:30:06;5.32;;;4.05;;
13208;SDS011;6669;42.678;23.332;2023-07-13T03:32:35;5.75;;;4.65;;
13208;SDS011;6669;42.678;23.332;2023-07-13T03:35:04;5.00;;;4.45;;
13208;SDS011;6669;42.678;23.332;2023-07-13T03:37:33;4.65;;;4.10;;
13208;SDS011;6669;42.678;23.332;2023-07-13T03:40:03;5.78;;;4.90;;
13208;SDS011;6669;42.678;23.332;2023-07-13T03:42:35;4.57;;;4.18;;
13208;SDS011;6669;42.678;23.332;2023-07-13T03:45:03;5.13;;;4.63;;
13208;SDS011;6669;42.678;23.332;2023-07-13T03:47:32;5.50;;;5.00;;
13208;SDS011;6669;42.678;23.332;2023-07-13T03:50:00;5.22;;;4.63;;
13208;SDS011;6669;42.678;23.332;2023-07-13T03:52:29;5.13;;;4.47;;
13208;SDS011;6669;42.678;23.332;2023-07-13T03:54:58;6.93;;;4.53;;
13208;SDS011;6669;42.678;23.332;2023-07-13T03:57:26;6.35;;;5.00;;
13208;SDS011;6669;42.678;23.332;2023-07-13T03:59:54;6.28;;;4.97;;
13208;SDS011;6669;42.678;23.332;2023-07-13T04:02:22;5.65;;;4.90;;
13208;SDS011;6669;42.678;23.332;2023-07-13T04:04:50;5.53;;;5.03;;
13208;SDS011;6669;42.678;23.332;2023-07-13T04:07:19;5.38;;;4.88;;
13208;SDS011;6669;42.678;23.332;2023-07-13T04:09:47;5.88;;;5.00;;
13208;SDS011;6669;42.678;23.332;2023-07-13T04:12:17;5.47;;;4.78;;
13208;SDS011;6669;42.678;23.332;2023-07-13T04:14:46;5.80;;;4.82;;
13208;SDS011;6669;42.678;23.332;2023-07-13T04:17:14;6.20;;;5.32;;
13208;SDS011;6669;42.678;23.332;2023-07-13T04:19:41;6.05;;;4.65;;
13208;SDS011;6669;42.678;23.332;2023-07-13T04:22:09;5.40;;;4.78;;
13208;SDS011;6669;42.678;23.332;2023-07-13T04:24:37;6.35;;;5.00;;
13208;SDS011;6669;42.678;23.332;2023-07-13T04:27:06;6.30;;;4.53;;
13208;SDS011;6669;42.678;23.332;2023-07-13T04:29:35;5.00;;;4.45;;
13208;SDS011;6669;42.678;23.332;2023-07-13T04:32:03;5.60;;;4.85;;
13208;SDS011;6669;42.678;23.332;2023-07-13T04:34:32;5.88;;;4.78;;
13208;SDS011;6669;42.678;23.332;2023-07-13T04:37:01;5.35;;;4.78;;
13208;SDS011;6669;42.678;23.332;2023-07-13T04:39:29;7.75;;;5.28;;
13208;SDS011;6669;42.678;23.332;2023-07-13T04:41:57;5.90;;;5.05;;
13208;SDS011;6669;42.678;23.332;2023-07-13T04:44:25;6.07;;;5.03;;
13208;SDS011;6669;42.678;23.332;2023-07-13T04:46:54;6.28;;;5.22;;
13208;SDS011;6669;42.678;23.332;2023-07-13T04:49:22;4.93;;;4.53;;
13208;SDS011;6669;42.678;23.332;2023-07-13T04:51:50;6.07;;;5.10;;
13208;SDS011;6669;42.678;23.332;2023-07-13T04:54:18;5.38;;;4.88;;
13208;SDS011;6669;42.678;23.332;2023-07-13T04:56:46;13.25;;;10.38;;
13208;SDS011;6669;42.678;23.332;2023-07-13T04:59:14;7.78;;;5.80;;
13208;SDS011;6669;42.678;23.332;2023-07-13T05:01:42;5.22;;;4.70;;
13208;SDS011;6669;42.678;23.332;2023-07-13T05:04:11;5.85;;;4.93;;
13208;SDS011;6669;42.678;23.332;2023-07-13T05:06:39;7.28;;;6.00;;
13208;SDS011;6669;42.678;23.332;2023-07-13T05:09:07;5.90;;;5.10;;
13208;SDS011;6669;42.678;23.332;2023-07-13T05:11:35;6.75;;;5.55;;
13208;SDS011;6669;42.678;23.332;2023-07-13T05:14:03;6.90;;;5.95;;
13208;SDS011;6669;42.678;23.332;2023-07-13T05:16:31;6.15;;;5.57;;
13208;SDS011;6669;42.678;23.332;2023-07-13T05:18:59;6.03;;;5.40;;
13208;SDS011;6669;42.678;23.332;2023-07-13T05:21:30;8.25;;;5.75;;
13208;SDS011;6669;42.678;23.332;2023-07-13T05:23:58;5.95;;;5.35;;
13208;SDS011;6669;42.678;23.332;2023-07-13T05:26:36;17.15;;;7.05;;
13208;SDS011;6669;42.678;23.332;2023-07-13T05:29:04;8.32;;;6.45;;
13208;SDS011;6669;42.678;23.332;2023-07-13T05:31:32;6.43;;;5.80;;
13208;SDS011;6669;42.678;23.332;2023-07-13T05:34:00;6.85;;;6.15;;
13208;SDS011;6669;42.678;23.332;2023-07-13T05:36:28;6.88;;;5.47;;
13208;SDS011;6669;42.678;23.332;2023-07-13T05:38:57;6.70;;;5.53;;
13208;SDS011;6669;42.678;23.332;2023-07-13T05:41:25;8.15;;;6.32;;
13208;SDS011;6669;42.678;23.332;2023-07-13T05:43:53;6.68;;;5.90;;
13208;SDS011;6669;42.678;23.332;2023-07-13T05:46:21;8.00;;;6.20;;
13208;SDS011;6669;42.678;23.332;2023-07-13T05:48:49;8.57;;;5.95;;
13208;SDS011;6669;42.678;23.332;2023-07-13T05:51:17;7.20;;;5.45;;
13208;SDS011;6669;42.678;23.332;2023-07-13T05:53:47;7.90;;;6.03;;
13208;SDS011;6669;42.678;23.332;2023-07-13T05:56:16;6.57;;;5.53;;
13208;SDS011;6669;42.678;23.332;2023-07-13T05:58:44;6.65;;;5.93;;
13208;SDS011;6669;42.678;23.332;2023-07-13T06:01:13;7.35;;;5.90;;
13208;SDS011;6669;42.678;23.332;2023-07-13T06:03:43;7.93;;;5.55;;
13208;SDS011;6669;42.678;23.332;2023-07-13T06:06:11;6.25;;;5.65;;
13208;SDS011;6669;42.678;23.332;2023-07-13T06:08:39;6.68;;;5.07;;
13208;SDS011;6669;42.678;23.332;2023-07-13T06:11:10;6.55;;;5.50;;
13208;SDS011;6669;42.678;23.332;2023-07-13T06:13:42;6.38;;;5.43;;
13208;SDS011;6669;42.678;23.332;2023-07-13T06:16:11;6.55;;;5.22;;
13208;SDS011;6669;42.678;23.332;2023-07-13T06:18:39;8.50;;;6.35;;
13208;SDS011;6669;42.678;23.332;2023-07-13T06:21:08;6.18;;;5.47;;
13208;SDS011;6669;42.678;23.332;2023-07-13T06:23:37;10.07;;;5.57;;
13208;SDS011;6669;42.678;23.332;2023-07-13T06:26:06;6.95;;;5.72;;
13208;SDS011;6669;42.678;23.332;2023-07-13T06:28:35;5.57;;;4.75;;
13208;SDS011;6669;42.678;23.332;2023-07-13T06:31:06;8.05;;;5.22;;
13208;SDS011;6669;42.678;23.332;2023-07-13T06:33:36;5.85;;;4.95;;
13208;SDS011;6669;42.678;23.332;2023-07-13T06:36:05;7.22;;;4.90;;
13208;SDS011;6669;42.678;23.332;2023-07-13T06:38:34;5.07;;;4.40;;
13208;SDS011;6669;42.678;23.332;2023-07-13T06:41:03;6.00;;;5.45;;
13208;SDS011;6669;42.678;23.332;2023-07-13T06:43:31;6.97;;;4.90;;
13208;SDS011;6669;42.678;23.332;2023-07-13T06:45:59;6.40;;;5.10;;
13208;SDS011;6669;42.678;23.332;2023-07-13T06:48:29;5.78;;;4.90;;
13208;SDS011;6669;42.678;23.332;2023-07-13T06:50:57;4.95;;;4.45;;
13208;SDS011;6669;42.678;23.332;2023-07-13T06:53:25;8.70;;;5.65;;
13208;SDS011;6669;42.678;23.332;2023-07-13T06:55:53;6.45;;;5.10;;
13208;SDS011;6669;42.678;23.332;2023-07-13T06:58:21;5.88;;;4.88;;
13208;SDS011;6669;42.678;23.332;2023-07-13T07:00:50;10.68;;;5.55;;
13208;SDS011;6669;42.678;23.332;2023-07-13T07:03:20;4.95;;;4.50;;
13208;SDS011;6669;42.678;23.332;2023-07-13T07:05:49;6.75;;;5.47;;
13208;SDS011;6669;42.678;23.332;2023-07-13T07:08:17;6.13;;;5.00;;
13208;SDS011;6669;42.678;23.332;2023-07-13T07:10:45;8.20;;;5.53;;
13208;SDS011;6669;42.678;23.332;2023-07-13T07:13:17;6.28;;;5.60;;
13208;SDS011;6669;42.678;23.332;2023-07-13T07:15:45;7.20;;;4.90;;
13208;SDS011;6669;42.678;23.332;2023-07-13T07:18:13;5.95;;;5.35;;
13208;SDS011;6669;42.678;23.332;2023-07-13T07:20:41;5.80;;;4.85;;
13208;SDS011;6669;42.678;23.332;2023-07-13T07:23:11;5.68;;;4.80;;
13208;SDS011;6669;42.678;23.332;2023-07-13T07:25:39;5.25;;;4.75;;
13208;SDS011;6669;42.678;23.332;2023-07-13T08:37:53;5.00;;;4.50;;
13208;SDS011;6669;42.678;23.332;2023-07-13T08:40:23;7.03;;;5.53;;
13208;SDS011;6669;42.678;23.332;2023-07-13T08:42:54;5.15;;;4.65;;
13208;SDS011;6669;42.678;23.332;2023-07-13T08:45:26;8.18;;;4.80;;
13208;SDS011;6669;42.678;23.332;2023-07-13T08:47:59;6.75;;;4.85;;
13208;SDS011;6669;42.678;23.332;2023-07-13T11:56:37;3.17;;;2.78;;
13208;SDS011;6669;42.678;23.332;2023-07-13T11:59:06;3.00;;;2.53;;
13208;SDS011;6669;42.678;23.332;2023-07-13T12:01:41;3.97;;;3.17;;
13208;SDS011;6669;42.678;23.332;2023-07-13T12:04:18;5.45;;;3.05;;
13208;SDS011;6669;42.678;23.332;2023-07-13T12:06:54;3.05;;;2.70;;
13208;SDS011;6669;42.678;23.332;2023-07-13T12:09:22;3.10;;;2.50;;
13208;SDS011;6669;42.678;23.332;2023-07-13T12:11:55;2.95;;;2.40;;
13208;SDS011;6669;42.678;23.332;2023-07-13T12:14:26;4.10;;;2.70;;
13208;SDS011;6669;42.678;23.332;2023-07-13T12:16:54;5.65;;;2.70;;
13208;SDS011;6669;42.678;23.332;2023-07-13T12:19:24;4.20;;;2.50;;
13208;SDS011;6669;42.678;23.332;2023-07-13T12:21:55;2.85;;;2.40;;
13208;SDS011;6669;42.678;23.332;2023-07-13T12:24:28;2.75;;;2.25;;
13208;SDS011;6669;42.678;23.332;2023-07-13T12:27:00;4.40;;;2.50;;
13208;SDS011;6669;42.678;23.332;2023-07-13T12:29:30;3.88;;;2.42;;
13208;SDS011;6669;42.678;23.332;2023-07-13T12:32:00;4.35;;;2.50;;
13208;SDS011;6669;42.678;23.332;2023-07-13T12:34:28;3.88;;;2.20;;
13208;SDS011;6669;42.678;23.332;2023-07-13T12:36:59;3.58;;;2.13;;
13208;SDS011;6669;42.678;23.332;2023-07-13T12:39:32;2.90;;;2.45;;
13208;SDS011;6669;42.678;23.332;2023-07-13T12:42:17;2.78;;;2.47;;
13208;SDS011;6669;42.678;23.332;2023-07-13T12:44:50;5.22;;;2.60;;
13208;SDS011;6669;42.678;23.332;2023-07-13T12:47:21;2.38;;;2.10;;
13208;SDS011;6669;42.678;23.332;2023-07-13T12:49:49;2.90;;;2.50;;
13208;SDS011;6669;42.678;23.332;2023-07-13T13:12:18;2.55;;;2.35;;
13208;SDS011;6669;42.678;23.332;2023-07-13T13:14:46;2.97;;;2.55;;
13208;SDS011;6669;42.678;23.332;2023-07-13T13:17:18;3.33;;;2.40;;
13208;SDS011;6669;42.678;23.332;2023-07-13T13:19:47;3.92;;;2.67;;
13208;SDS011;6669;42.678;23.332;2023-07-13T13:22:16;4.25;;;2.90;;
13208;SDS011;6669;42.678;23.332;2023-07-13T13:24:44;3.38;;;3.08;;
13208;SDS011;6669;42.678;23.332;2023-07-13T13:27:14;3.38;;;2.80;;
13208;SDS011;6669;42.678;23.332;2023-07-13T13:29:45;4.75;;;2.47;;
13208;SDS011;6669;42.678;23.332;2023-07-13T13:32:16;2.90;;;2.60;;
13208;SDS011;6669;42.678;23.332;2023-07-13T13:34:45;2.55;;;2.35;;
13208;SDS011;6669;42.678;23.332;2023-07-13T13:37:16;2.63;;;2.42;;
13208;SDS011;6669;42.678;23.332;2023-07-13T13:39:46;4.95;;;2.65;;
13208;SDS011;6669;42.678;23.332;2023-07-13T13:42:33;3.40;;;2.30;;
13208;SDS011;6669;42.678;23.332;2023-07-13T13:45:03;4.72;;;2.70;;
13208;SDS011;6669;42.678;23.332;2023-07-13T13:47:32;4.63;;;2.25;;
13208;SDS011;6669;42.678;23.332;2023-07-13T13:50:09;3.65;;;2.60;;
13208;SDS011;6669;42.678;23.332;2023-07-13T13:52:41;4.70;;;2.40;;
13208;SDS011;6669;42.678;23.332;2023-07-13T13:55:13;6.43;;;2.33;;
13208;SDS011;6669;42.678;23.332;2023-07-13T13:57:41;4.65;;;2.30;;
13208;SDS011;6669;42.678;23.332;2023-07-13T14:00:11;2.33;;;2.13;;
13208;SDS011;6669;42.678;23.332;2023-07-13T14:02:41;4.53;;;2.80;;
13208;SDS011;6669;42.678;23.332;2023-07-13T14:05:14;3.03;;;2.45;;
13208;SDS011;6669;42.678;23.332;2023-07-13T14:07:45;2.75;;;2.13;;
13208;SDS011;6669;42.678;23.332;2023-07-13T14:10:14;3.05;;;2.50;;
13208;SDS011;6669;42.678;23.332;2023-07-13T14:12:44;3.15;;;2.40;;
13208;SDS011;6669;42.678;23.332;2023-07-13T14:15:17;2.75;;;2.40;;
13208;SDS011;6669;42.678;23.332;2023-07-13T14:17:48;2.60;;;2.40;;
13208;SDS011;6669;42.678;23.332;2023-07-13T14:20:17;3.50;;;2.50;;
13208;SDS011;6669;42.678;23.332;2023-07-13T14:22:46;2.83;;;2.22;;
13208;SDS011;6669;42.678;23.332;2023-07-13T14:25:15;3.83;;;2.72;;
13208;SDS011;6669;42.678;23.332;2023-07-13T14:27:45;2.78;;;2.55;;
13208;SDS011;6669;42.678;23.332;2023-07-13T14:30:15;4.05;;;2.40;;
13208;SDS011;6669;42.678;23.332;2023-07-13T14:32:46;3.40;;;2.33;;
13208;SDS011;6669;42.678;23.332;2023-07-13T14:35:16;2.78;;;2.40;;
13208;SDS011;6669;42.678;23.332;2023-07-13T14:37:47;3.30;;;2.28;;
13208;SDS011;6669;42.678;23.332;2023-07-13T14:40:16;3.60;;;2.15;;
13208;SDS011;6669;42.678;23.332;2023-07-13T14:42:45;4.45;;;2.45;;
13208;SDS011;6669;42.678;23.332;2023-07-13T14:45:13;3.00;;;2.45;;
13208;SDS011;6669;42.678;23.332;2023-07-13T14:47:43;4.40;;;2.72;;
13208;SDS011;6669;42.678;23.332;2023-07-13T14:50:13;5.22;;;2.42;;
13208;SDS011;6669;42.678;23.332;2023-07-13T14:52:44;4.68;;;2.55;;
13208;SDS011;6669;42.678;23.332;2023-07-13T14:55:14;3.33;;;2.60;;
13208;SDS011;6669;42.678;23.332;2023-07-13T14:57:43;3.53;;;2.40;;
13208;SDS011;6669;42.678;23.332;2023-07-13T15:00:12;3.17;;;2.58;;
13208;SDS011;6669;42.678;23.332;2023-07-13T15:02:44;4.30;;;2.70;;
13208;SDS011;6669;42.678;23.332;2023-07-13T15:05:15;3.72;;;2.50;;
13208;SDS011;6669;42.678;23.332;2023-07-13T15:07:46;3.50;;;2.40;;
13208;SDS011;6669;42.678;23.332;2023-07-13T15:10:15;4.80;;;2.70;;
13208;SDS011;6669;42.678;23.332;2023-07-13T15:12:45;4.32;;;2.47;;
13208;SDS011;6669;42.678;23.332;2023-07-13T15:15:13;3.40;;;3.00;;
13208;SDS011;6669;42.678;23.332;2023-07-13T15:17:44;5.25;;;2.63;;
13208;SDS011;6669;42.678;23.332;2023-07-13T15:20:16;4.68;;;2.70;;
13208;SDS011;6669;42.678;23.332;2023-07-13T15:22:59;4.22;;;2.60;;
13208;SDS011;6669;42.678;23.332;2023-07-13T15:25:28;4.80;;;2.72;;
13208;SDS011;6669;42.678;23.332;2023-07-13T15:27:59;5.15;;;2.65;;
13208;SDS011;6669;42.678;23.332;2023-07-13T15:30:29;4.00;;;2.30;;
13208;SDS011;6669;42.678;23.332;2023-07-13T15:33:01;4.95;;;2.38;;
13208;SDS011;6669;42.678;23.332;2023-07-13T15:35:38;3.47;;;2.40;;
13208;SDS011;6669;42.678;23.332;2023-07-13T15:38:12;2.83;;;2.53;;
13208;SDS011;6669;42.678;23.332;2023-07-13T15:40:42;4.68;;;2.45;;
13208;SDS011;6669;42.678;23.332;2023-07-13T15:43:11;2.78;;;2.50;;
13208;SDS011;6669;42.678;23.332;2023-07-13T15:45:40;2.50;;;2.25;;
13208;SDS011;6669;42.678;23.332;2023-07-13T15:48:13;2.90;;;2.42;;
13208;SDS011;6669;42.678;23.332;2023-07-13T15:50:45;3.25;;;2.33;;
13208;SDS011;6669;42.678;23.332;2023-07-13T15:53:15;4.35;;;2.40;;
13208;SDS011;6669;42.678;23.332;2023-07-13T15:55:47;3.58;;;2.25;;
13208;SDS011;6669;42.678;23.332;2023-07-13T15:58:16;3.50;;;2.40;;
13208;SDS011;6669;42.678;23.332;2023-07-13T16:00:44;4.35;;;2.70;;
13208;SDS011;6669;42.678;23.332;2023-07-13T16:03:13;3.55;;;2.65;;
13208;SDS011;6669;42.678;23.332;2023-07-13T16:05:41;3.17;;;2.50;;
13208;SDS011;6669;42.678;23.332;2023-07-13T16:08:18;5.00;;;2.80;;
13208;SDS011;6669;42.678;23.332;2023-07-13T16:10:50;3.83;;;2.70;;
13208;SDS011;6669;42.678;23.332;2023-07-13T16:13:19;3.00;;;2.35;;
13208;SDS011;6669;42.678;23.332;2023-07-13T16:15:48;3.45;;;2.58;;
13208;SDS011;6669;42.678;23.332;2023-07-13T16:18:17;3.13;;;2.83;;
13208;SDS011;6669;42.678;23.332;2023-07-13T16:20:46;3.22;;;2.50;;
13208;SDS011;6669;42.678;23.332;2023-07-13T16:23:16;3.30;;;2.60;;
13208;SDS011;6669;42.678;23.332;2023-07-13T16:25:45;3.40;;;2.53;;
13208;SDS011;6669;42.678;23.332;2023-07-13T16:28:15;2.97;;;2.35;;
13208;SDS011;6669;42.678;23.332;2023-07-13T16:30:43;4.35;;;2.88;;
13208;SDS011;6669;42.678;23.332;2023-07-13T16:33:11;4.25;;;2.65;;
13208;SDS011;6669;42.678;23.332;2023-07-13T16:35:40;3.17;;;2.75;;
13208;SDS011;6669;42.678;23.332;2023-07-13T16:38:13;6.18;;;2.47;;
13208;SDS011;6669;42.678;23.332;2023-07-13T16:40:44;2.85;;;2.60;;
13208;SDS011;6669;42.678;23.332;2023-07-13T16:43:14;4.00;;;2.55;;
13208;SDS011;6669;42.678;23.332;2023-07-13T16:45:48;3.28;;;2.53;;
13208;SDS011;6669;42.678;23.332;2023-07-13T16:48:20;3.95;;;3.08;;
13208;SDS011;6669;42.678;23.332;2023-07-13T16:50:53;4.93;;;2.90;;
13208;SDS011;6669;42.678;23.332;2023-07-13T16:53:23;3.13;;;2.55;;
13208;SDS011;6669;42.678;23.332;2023-07-13T16:55:53;4.00;;;2.55;;
13208;SDS011;6669;42.678;23.332;2023-07-13T16:58:28;3.13;;;2.83;;
13208;SDS011;6669;42.678;23.332;2023-07-13T17:00:58;3.30;;;2.92;;
13208;SDS011;6669;42.678;23.332;2023-07-13T17:03:29;3.97;;;2.85;;
13208;SDS011;6669;42.678;23.332;2023-07-13T17:06:00;3.40;;;2.72;;
13208;SDS011;6669;42.678;23.332;2023-07-13T17:08:39;3.10;;;2.55;;
13208;SDS011;6669;42.678;23.332;2023-07-13T17:11:07;4.72;;;2.72;;
13208;SDS011;6669;42.678;23.332;2023-07-13T17:13:35;4.03;;;2.72;;
13208;SDS011;6669;42.678;23.332;2023-07-13T17:16:04;5.47;;;2.72;;
13208;SDS011;6669;42.678;23.332;2023-07-13T17:18:35;4.88;;;3.08;;
13208;SDS011;6669;42.678;23.332;2023-07-13T17:21:05;4.85;;;2.70;;
13208;SDS011;6669;42.678;23.332;2023-07-13T17:23:40;4.35;;;2.92;;
13208;SDS011;6669;42.678;23.332;2023-07-13T17:26:09;4.40;;;3.10;;
13208;SDS011;6669;42.678;23.332;2023-07-13T17:28:37;5.05;;;3.22;;
13208;SDS011;6669;42.678;23.332;2023-07-13T17:31:09;3.78;;;3.05;;
13208;SDS011;6669;42.678;23.332;2023-07-13T17:33:44;4.35;;;3.42;;
13208;SDS011;6669;42.678;23.332;2023-07-13T17:36:15;3.80;;;3.50;;
13208;SDS011;6669;42.678;23.332;2023-07-13T17:38:44;5.15;;;3.22;;
13208;SDS011;6669;42.678;23.332;2023-07-13T17:41:17;5.30;;;3.45;;
13208;SDS011;6669;42.678;23.332;2023-07-13T17:43:46;6.07;;;3.30;;
13208;SDS011;6669;42.678;23.332;2023-07-13T17:46:14;4.10;;;3.10;;
13208;SDS011;6669;42.678;23.332;2023-07-13T17:48:45;4.35;;;3.20;;
13208;SDS011;6669;42.678;23.332;2023-07-13T17:51:17;3.63;;;2.85;;
13208;SDS011;6669;42.678;23.332;2023-07-13T17:53:46;3.70;;;2.90;;
13208;SDS011;6669;42.678;23.332;2023-07-13T17:56:14;3.10;;;2.80;;
13208;SDS011;6669;42.678;23.332;2023-07-13T17:58:43;5.10;;;3.60;;
13208;SDS011;6669;42.678;23.332;2023-07-13T18:01:14;3.95;;;3.33;;
13208;SDS011;6669;42.678;23.332;2023-07-13T18:03:47;5.65;;;3.42;;
13208;SDS011;6669;42.678;23.332;2023-07-13T18:06:22;7.57;;;3.75;;
13208;SDS011;6669;42.678;23.332;2023-07-13T18:08:56;9.85;;;3.67;;
13208;SDS011;6669;42.678;23.332;2023-07-13T18:11:31;6.00;;;4.00;;
13208;SDS011;6669;42.678;23.332;2023-07-13T18:13:59;4.20;;;3.50;;
13208;SDS011;6669;42.678;23.332;2023-07-13T18:16:28;4.05;;;3.10;;
13208;SDS011;6669;42.678;23.332;2023-07-13T18:18:58;4.43;;;3.45;;
13208;SDS011;6669;42.678;23.332;2023-07-13T18:21:30;4.45;;;3.67;;
13208;SDS011;6669;42.678;23.332;2023-07-13T18:23:58;3.95;;;3.10;;
13208;SDS011;6669;42.678;23.332;2023-07-13T18:26:27;4.55;;;3.20;;
13208;SDS011;6669;42.678;23.332;2023-07-13T18:28:55;7.28;;;3.33;;
13208;SDS011;6669;42.678;23.332;2023-07-13T18:31:25;5.03;;;3.00;;
13208;SDS011;6669;42.678;23.332;2023-07-13T18:34:00;4.30;;;3.20;;
13208;SDS011;6669;42.678;23.332;2023-07-13T18:36:30;4.30;;;3.58;;
13208;SDS011;6669;42.678;23.332;2023-07-13T18:38:58;4.80;;;3.60;;
13208;SDS011;6669;42.678;23.332;2023-07-13T18:41:26;6.07;;;3.67;;
13208;SDS011;6669;42.678;23.332;2023-07-13T18:43:54;7.40;;;3.50;;
13208;SDS011;6669;42.678;23.332;2023-07-13T18:46:23;5.55;;;3.72;;
13208;SDS011;6669;42.678;23.332;2023-07-13T18:48:54;4.25;;;3.70;;
13208;SDS011;6669;42.678;23.332;2023-07-13T18:51:22;4.15;;;3.75;;
13208;SDS011;6669;42.678;23.332;2023-07-13T18:53:51;4.90;;;3.10;;
13208;SDS011;6669;42.678;23.332;2023-07-13T18:56:19;5.95;;;3.80;;
13208;SDS011;6669;42.678;23.332;2023-07-13T18:58:48;7.38;;;4.72;;
13208;SDS011;6669;42.678;23.332;2023-07-13T19:01:18;4.30;;;3.90;;
13208;SDS011;6669;42.678;23.332;2023-07-13T19:03:50;7.80;;;5.15;;
13208;SDS011;6669;42.678;23.332;2023-07-13T19:06:18;6.53;;;5.13;;
13208;SDS011;6669;42.678;23.332;2023-07-13T19:08:47;7.75;;;4.90;;
13208;SDS011;6669;42.678;23.332;2023-07-13T19:11:19;5.20;;;4.63;;
13208;SDS011;6669;42.678;23.332;2023-07-13T19:13:49;6.47;;;4.15;;
13208;SDS011;6669;42.678;23.332;2023-07-13T19:16:19;6.88;;;4.15;;
13208;SDS011;6669;42.678;23.332;2023-07-13T19:18:47;6.82;;;4.10;;
13208;SDS011;6669;42.678;23.332;2023-07-13T19:21:23;5.63;;;3.67;;
13208;SDS011;6669;42.678;23.332;2023-07-13T19:23:57;5.10;;;4.25;;
13208;SDS011;6669;42.678;23.332;2023-07-13T19:26:28;6.15;;;4.20;;
13208;SDS011;6669;42.678;23.332;2023-07-13T19:28:59;5.18;;;3.55;;
13208;SDS011;6669;42.678;23.332;2023-07-13T19:31:32;7.13;;;4.07;;
13208;SDS011;6669;42.678;23.332;2023-07-13T19:34:10;6.10;;;4.20;;
13208;SDS011;6669;42.678;23.332;2023-07-13T19:36:43;5.32;;;3.78;;
13208;SDS011;6669;42.678;23.332;2023-07-13T19:39:15;8.10;;;4.20;;